createdAt,value
2018-07-02T00:02:11.412Z,100134.22
2018-07-02T00:04:39.153Z,100130.75
2018-07-02T00:07:17.141Z,100125.98
2018-07-02T00:09:45.983Z,100127.07
2018-07-02T00:12:14.697Z,100134.22
2018-07-02T00:14:42.829Z,100129.91
2018-07-02T00:17:10.517Z,100137.81
2018-07-02T00:19:38.313Z,100141.05
2018-07-02T00:22:07.059Z,100136.86
2018-07-02T00:24:34.726Z,100131.72
2018-07-02T00:27:02.482Z,100136.25
2018-07-02T00:29:30.208Z,100130.24
2018-07-02T00:31:57.883Z,100132.39
2018-07-02T00:34:25.492Z,100128.34
2018-07-02T00:36:53.965Z,100129.28
2018-07-02T00:39:21.571Z,100132.86
2018-07-02T00:41:49.218Z,100125.36
2018-07-02T00:44:17.004Z,100124.89
2018-07-02T00:46:44.762Z,100127.30
2018-07-02T00:49:12.413Z,100123.84
2018-07-02T00:51:40.034Z,100127.41
2018-07-02T00:54:07.703Z,100120.95
2018-07-02T00:56:35.381Z,100118.69
2018-07-02T00:59:03.043Z,100120.12
2018-07-02T01:01:30.811Z,100118.80
2018-07-02T01:03:59.553Z,100126.09
2018-07-02T01:06:27.265Z,100130.03
2018-07-02T01:08:55.132Z,100125.95
2018-07-02T01:11:22.937Z,100119.36
2018-07-02T01:13:51.277Z,100116.71
2018-07-02T01:16:18.953Z,100117.02
2018-07-02T01:18:47.750Z,100116.91
2018-07-02T01:21:15.425Z,100115.39
2018-07-02T01:23:43.441Z,100117.64
2018-07-02T01:26:11.419Z,100121.34
2018-07-02T01:28:39.051Z,100116.80
2018-07-02T01:31:06.853Z,100117.75
2018-07-02T01:33:34.522Z,100117.92
2018-07-02T01:36:02.459Z,100115.25
2018-07-02T01:38:30.476Z,100110.46
2018-07-02T01:40:58.224Z,100112.61
2018-07-02T01:43:25.988Z,100112.02
2018-07-02T01:45:53.774Z,100106.78
2018-07-02T01:48:21.492Z,100111.06
2018-07-02T01:50:49.128Z,100107.27
2018-07-02T01:53:16.838Z,100107.45
2018-07-02T01:55:44.697Z,100098.89
2018-07-02T01:58:12.358Z,100109.48
2018-07-02T02:00:40.042Z,100108.66
2018-07-02T02:03:07.809Z,100103.30
2018-07-02T02:05:35.561Z,100107.84
2018-07-02T02:08:03.477Z,100104.26
2018-07-02T02:10:31.184Z,100105.31
2018-07-02T02:12:58.937Z,100103.83
2018-07-02T02:15:26.610Z,100106.55
2018-07-02T02:17:54.313Z,100107.29
2018-07-02T02:20:22.060Z,100107.29
2018-07-02T02:22:49.846Z,100106.45
2018-07-02T02:25:17.533Z,100105.01
2018-07-02T02:27:45.189Z,100103.14
2018-07-02T02:30:12.823Z,100108.59
2018-07-02T02:32:40.478Z,100102.19
2018-07-02T02:35:08.177Z,100101.98
2018-07-02T02:37:35.902Z,100105.14
2018-07-02T02:40:04.421Z,100112.23
2018-07-02T02:42:32.100Z,100107.30
2018-07-02T02:44:59.809Z,100110.25
2018-07-02T02:47:27.475Z,100111.83
2018-07-02T02:49:55.207Z,100112.36
2018-07-02T02:52:22.965Z,100111.83
2018-07-02T02:54:50.761Z,100109.49
2018-07-02T02:57:18.428Z,100112.30
2018-07-02T02:59:46.127Z,100109.27
2018-07-02T03:02:13.818Z,100108.47
2018-07-02T03:04:41.581Z,100099.73
2018-07-02T03:07:09.255Z,100104.54
2018-07-02T03:09:36.935Z,100105.59
2018-07-02T03:12:04.591Z,100106.72
2018-07-02T03:14:32.257Z,100109.38
2018-07-02T03:16:59.928Z,100095.84
2018-07-02T03:19:27.648Z,100095.00
2018-07-02T03:21:55.361Z,100091.95
2018-07-02T03:24:23.119Z,100091.48
2018-07-02T03:26:50.813Z,100094.00
2018-07-02T03:29:18.578Z,100084.59
2018-07-02T03:31:46.275Z,100076.22
2018-07-02T03:34:14.349Z,100076.22
2018-07-02T03:36:42.052Z,100079.17
2018-07-02T03:39:10.464Z,100079.97
2018-07-02T03:41:38.109Z,100081.57
2018-07-02T03:44:06.186Z,100080.67
2018-07-02T03:46:34.063Z,100083.45
2018-07-02T03:49:01.857Z,100084.08
2018-07-02T03:51:29.681Z,100082.41
2018-07-02T03:53:57.425Z,100066.31
2018-07-02T03:56:25.567Z,100080.56
2018-07-02T03:58:53.260Z,100086.35
2018-07-02T04:01:21.280Z,100085.53
2018-07-02T04:03:49.120Z,100093.11
2018-07-02T04:06:17.125Z,100093.48
2018-07-02T04:08:44.732Z,100091.95
2018-07-02T04:11:12.419Z,100088.01
2018-07-02T04:13:40.015Z,100091.71
2018-07-02T04:16:07.684Z,100094.68
2018-07-02T04:18:36.254Z,100097.17
2018-07-02T04:21:03.992Z,100096.27
2018-07-02T04:23:31.831Z,100107.63
2018-07-02T04:25:59.593Z,100107.28
2018-07-02T04:28:27.322Z,100104.11
2018-07-02T04:30:54.970Z,100101.63
2018-07-02T04:33:22.648Z,100103.06
2018-07-02T04:35:50.340Z,100097.25
2018-07-02T04:38:18.051Z,100093.98
2018-07-02T04:40:45.698Z,100103.31
2018-07-02T04:43:13.678Z,100095.61
2018-07-02T04:45:41.366Z,100097.80
2018-07-02T04:48:09.102Z,100090.92
2018-07-02T04:50:36.802Z,100093.87
2018-07-02T04:53:04.529Z,100100.31
2018-07-02T04:55:32.304Z,100087.84
2018-07-02T04:58:00.135Z,100081.34
2018-07-02T05:00:27.944Z,100089.73
2018-07-02T05:02:55.711Z,100095.81
2018-07-02T05:05:23.335Z,100098.84
2018-07-02T05:07:50.999Z,100100.13
2018-07-02T05:10:18.641Z,100100.15
2018-07-02T05:12:46.253Z,100104.23
2018-07-02T05:15:13.966Z,100110.51
2018-07-02T05:17:41.745Z,100105.53
2018-07-02T05:20:09.475Z,100107.47
2018-07-02T05:22:37.154Z,100109.23
2018-07-02T05:25:05.064Z,100109.83
2018-07-02T05:27:32.863Z,100111.92
2018-07-02T05:30:00.726Z,100112.16
2018-07-02T05:32:28.419Z,100112.34
2018-07-02T05:34:56.170Z,100108.69
2018-07-02T05:37:23.910Z,100104.67
2018-07-02T05:39:51.522Z,100104.11
2018-07-02T05:42:19.179Z,100101.13
2018-07-02T05:44:46.839Z,100107.73
2018-07-02T05:47:14.588Z,100110.42
2018-07-02T05:49:42.274Z,100107.70
2018-07-02T05:52:09.928Z,100114.31
2018-07-02T05:54:37.590Z,100113.49
2018-07-02T05:57:05.526Z,100117.05
2018-07-02T05:59:33.258Z,100115.32
2018-07-02T06:02:01.195Z,100119.23
2018-07-02T06:04:28.688Z,100106.24
2018-07-02T06:06:56.419Z,100109.54
2018-07-02T06:09:24.150Z,100107.14
2018-07-02T06:11:51.892Z,100098.75
2018-07-02T06:14:19.671Z,100102.34
2018-07-02T06:16:47.365Z,100103.64
2018-07-02T06:19:15.173Z,100095.28
2018-07-02T06:21:42.900Z,100091.52
2018-07-02T06:24:10.612Z,100103.69
2018-07-02T06:26:38.262Z,100100.68
2018-07-02T06:29:06.021Z,100111.37
2018-07-02T06:31:33.696Z,100109.89
2018-07-02T06:34:01.393Z,100104.35
2018-07-02T06:36:29.160Z,100104.20
2018-07-02T06:38:56.914Z,100106.42
2018-07-02T06:41:24.620Z,100098.20
2018-07-02T06:43:52.853Z,100105.33
2018-07-02T06:46:20.582Z,100109.48
2018-07-02T06:48:48.737Z,100106.02
2018-07-02T06:51:16.484Z,100118.12
2018-07-02T06:53:44.215Z,100113.16
2018-07-02T06:56:11.901Z,100114.99
2018-07-02T06:58:39.700Z,100119.80
2018-07-02T07:01:07.477Z,100116.94
2018-07-02T07:03:35.191Z,100117.66
2018-07-02T07:06:02.917Z,100123.62
2018-07-02T07:08:30.670Z,100116.97
2018-07-02T07:10:58.441Z,100127.23
2018-07-02T07:13:26.171Z,100126.30
2018-07-02T07:15:53.822Z,100126.79
2018-07-02T07:18:21.525Z,100125.59
2018-07-02T07:20:49.181Z,100120.80
2018-07-02T07:23:16.882Z,100113.89
2018-07-02T07:25:44.715Z,100111.81
2018-07-02T07:28:12.729Z,100116.67
2018-07-02T07:30:40.425Z,100117.59
2018-07-02T07:33:08.120Z,100109.38
2018-07-02T07:35:35.849Z,100110.55
2018-07-02T07:38:03.676Z,100107.55
2018-07-02T07:40:31.358Z,100104.39
2018-07-02T07:42:58.981Z,100106.77
2018-07-02T07:45:26.624Z,100103.34
2018-07-02T07:47:54.335Z,100103.34
2018-07-02T07:50:22.452Z,100107.50
2018-07-02T07:52:50.233Z,100111.27
2018-07-02T07:55:18.003Z,100117.47
2018-07-02T07:57:45.858Z,100114.34
2018-07-02T08:00:13.575Z,100111.57
2018-07-02T08:02:41.448Z,100111.55
2018-07-02T08:05:09.187Z,100109.68
2018-07-02T08:07:36.922Z,100109.02
2018-07-02T08:10:04.734Z,100109.95
2018-07-02T08:12:32.476Z,100108.22
2018-07-02T08:15:00.126Z,100101.35
2018-07-02T08:17:27.891Z,100101.91
2018-07-02T08:19:55.611Z,100084.17
2018-07-02T08:22:23.409Z,100095.62
2018-07-02T08:24:51.075Z,100092.13
2018-07-02T08:27:18.827Z,100097.45
2018-07-02T08:29:46.500Z,100089.41
2018-07-02T08:32:14.261Z,100090.02
2018-07-02T08:34:41.983Z,100087.91
2018-07-02T08:37:09.657Z,100092.63
2018-07-02T08:39:37.455Z,100095.33
2018-07-02T08:42:05.087Z,100085.42
2018-07-02T08:44:32.813Z,100084.11
2018-07-02T08:47:00.515Z,100089.94
2018-07-02T08:49:28.153Z,100085.78
2018-07-02T08:51:55.870Z,100083.94
2018-07-02T08:54:23.504Z,100089.96
2018-07-02T08:56:51.397Z,100078.57
2018-07-02T08:59:19.062Z,100078.61
2018-07-02T09:01:46.829Z,100074.20
2018-07-02T09:04:14.455Z,100073.12
2018-07-02T09:06:42.081Z,100071.14
2018-07-02T09:09:11.312Z,100069.13
2018-07-02T09:11:39.061Z,100064.49
2018-07-02T09:14:06.775Z,100059.95
2018-07-02T09:16:34.461Z,100066.36
2018-07-02T09:19:02.337Z,100059.18
2018-07-02T09:21:30.452Z,100060.52
2018-07-02T09:23:58.138Z,100067.56
2018-07-02T09:26:25.834Z,100063.03
2018-07-02T09:28:53.562Z,100060.36
2018-07-02T09:31:21.175Z,100061.09
2018-07-02T09:33:48.810Z,100064.47
2018-07-02T09:36:17.189Z,100068.00
2018-07-02T09:38:44.885Z,100067.02
2018-07-02T09:41:12.967Z,100072.27
2018-07-02T09:43:40.677Z,100080.39
2018-07-02T09:46:08.610Z,100072.94
2018-07-02T09:48:36.332Z,100071.03
2018-07-02T09:51:04.132Z,100056.25
2018-07-02T09:53:32.030Z,100066.56
2018-07-02T09:55:59.688Z,100075.06
2018-07-02T09:58:27.503Z,100068.30
2018-07-02T10:00:55.252Z,100066.72
2018-07-02T10:03:23.028Z,100060.22
2018-07-02T10:05:50.696Z,100071.97
2018-07-02T10:08:18.490Z,100066.13
2018-07-02T10:10:46.102Z,100059.01
2018-07-02T10:13:13.732Z,100057.20
2018-07-02T10:15:41.605Z,100059.90
2018-07-02T10:18:09.307Z,100060.05
2018-07-02T10:20:37.185Z,100060.84
2018-07-02T10:23:05.342Z,100062.05
2018-07-02T10:25:32.986Z,100063.63
2018-07-02T10:28:00.623Z,100063.52
2018-07-02T10:30:28.341Z,100055.09
2018-07-02T10:32:56.102Z,100060.52
2018-07-02T10:35:23.764Z,100061.94
2018-07-02T10:37:51.467Z,100060.58
2018-07-02T10:40:19.506Z,100059.91
2018-07-02T10:42:47.224Z,100055.36
2018-07-02T10:45:15.397Z,100048.27
2018-07-02T10:47:43.136Z,100057.05
2018-07-02T10:50:11.039Z,100053.27
2018-07-02T10:52:44.461Z,100051.83
2018-07-02T10:55:13.182Z,100042.09
2018-07-02T10:57:41.330Z,100046.66
2018-07-02T11:00:09.289Z,100041.42
2018-07-02T11:02:38.120Z,100048.42
2018-07-02T11:05:06.336Z,100042.06
2018-07-02T11:07:35.118Z,100040.98
2018-07-02T11:10:03.677Z,100027.50
2018-07-02T11:12:31.934Z,100026.82
2018-07-02T11:15:00.481Z,100014.46
2018-07-02T11:17:28.701Z,100021.27
2018-07-02T11:19:56.765Z,100016.73
2018-07-02T11:22:24.724Z,100022.12
2018-07-02T11:24:52.970Z,100013.20
2018-07-02T11:27:20.949Z,100018.55
2018-07-02T11:29:48.836Z,100007.89
2018-07-02T11:32:17.049Z,100011.92
2018-07-02T11:34:45.085Z,100003.83
2018-07-02T11:37:13.175Z,100007.77
2018-07-02T11:39:41.120Z,100006.89
2018-07-02T11:42:08.928Z,100013.57
2018-07-02T11:44:39.942Z,100014.17
2018-07-02T11:47:07.621Z,99998.91
2018-07-02T11:49:35.569Z,100006.95
2018-07-02T11:52:32.368Z,99995.08
2018-07-02T11:55:28.762Z,99994.80
2018-07-02T12:01:03.200Z,99987.67
2018-07-02T12:03:39.095Z,99992.97
2018-07-02T12:06:34.569Z,99996.00
2018-07-02T12:09:19.112Z,99949.86
2018-07-02T12:16:54.202Z,100009.25
2018-07-02T12:22:16.553Z,100010.45
2018-07-02T12:25:14.935Z,100012.68
2018-07-02T12:27:42.840Z,100012.53
2018-07-02T12:30:10.704Z,100016.80
2018-07-02T12:32:38.568Z,100012.97
2018-07-02T12:35:06.408Z,100010.81
2018-07-02T12:37:34.285Z,100018.62
2018-07-02T12:40:02.102Z,100017.73
2018-07-02T12:42:30.348Z,100011.38
2018-07-02T12:44:58.119Z,100004.30
2018-07-02T12:47:25.931Z,100001.48
2018-07-02T12:49:53.563Z,100007.53
2018-07-02T12:52:21.268Z,100009.72
2018-07-02T12:54:48.911Z,99999.21
2018-07-02T12:57:16.537Z,100003.96
2018-07-02T12:59:44.193Z,100003.04
2018-07-02T13:02:11.912Z,100011.31
2018-07-02T13:04:39.620Z,100007.83
2018-07-02T13:07:07.325Z,100009.81
2018-07-02T13:09:35.033Z,100008.64
2018-07-02T13:12:02.810Z,99994.91
2018-07-02T13:14:30.472Z,100001.81
2018-07-02T13:16:58.195Z,99999.02
2018-07-02T13:19:25.922Z,99996.58
2018-07-02T13:21:53.611Z,100001.47
2018-07-02T13:24:21.338Z,99990.30
2018-07-02T13:26:49.006Z,99991.31
2018-07-02T13:29:16.726Z,99989.91
2018-07-02T13:31:44.453Z,99988.41
2018-07-02T13:34:12.190Z,99977.68
2018-07-02T13:36:39.946Z,99976.37
2018-07-02T13:39:08.657Z,99976.61
2018-07-02T13:41:36.359Z,99966.70
2018-07-02T13:44:04.203Z,99968.73
2018-07-02T13:46:31.941Z,99973.42
2018-07-02T13:48:59.713Z,99975.41
2018-07-02T13:51:27.389Z,99976.09
2018-07-02T13:53:55.099Z,99974.88
2018-07-02T13:56:22.871Z,99972.63
2018-07-02T13:58:50.513Z,99961.31
2018-07-02T14:01:18.295Z,99967.34
2018-07-02T14:03:45.961Z,99969.28
2018-07-02T14:06:13.611Z,99963.73
2018-07-02T14:08:41.220Z,99959.58
2018-07-02T14:11:08.979Z,99957.62
2018-07-02T14:13:36.696Z,99954.43
2018-07-02T14:16:04.589Z,99944.06
2018-07-02T14:18:32.304Z,99942.30
2018-07-02T14:20:59.957Z,99955.94
2018-07-02T14:23:27.692Z,99959.49
2018-07-02T14:25:55.976Z,99950.52
2018-07-02T14:28:23.736Z,99945.99
2018-07-02T14:30:51.484Z,99953.09
2018-07-02T14:33:19.162Z,99956.92
2018-07-02T14:35:46.830Z,99959.62
2018-07-02T14:38:14.540Z,99954.79
2018-07-02T14:40:42.313Z,99958.25
2018-07-02T14:43:10.142Z,99963.12
2018-07-02T14:45:37.876Z,99956.83
2018-07-02T14:48:05.607Z,99955.59
2018-07-02T14:50:33.287Z,99954.64
2018-07-02T14:53:01.121Z,99958.07
2018-07-02T14:55:28.825Z,99944.22
2018-07-02T14:57:56.647Z,99947.09
2018-07-02T15:00:24.487Z,99941.35
2018-07-02T15:02:52.796Z,99938.13
2018-07-02T15:05:20.667Z,99937.79
2018-07-02T15:07:48.371Z,99944.75
2018-07-02T15:10:16.170Z,99950.45
2018-07-02T15:12:43.965Z,99939.22
2018-07-02T15:15:11.732Z,99940.76
2018-07-02T15:17:39.477Z,99936.04
2018-07-02T15:20:07.345Z,99931.93
2018-07-02T15:22:35.326Z,99931.99
2018-07-02T15:25:03.168Z,99930.14
2018-07-02T15:27:30.977Z,99924.77
2018-07-02T15:29:58.796Z,99917.61
2018-07-02T15:32:26.660Z,99918.41
2018-07-02T15:34:54.524Z,99925.60
2018-07-02T15:37:22.260Z,99927.48
2018-07-02T15:39:50.246Z,99927.45
2018-07-02T15:42:18.032Z,99931.39
2018-07-02T15:44:45.902Z,99923.22
2018-07-02T15:47:13.676Z,99925.45
2018-07-02T15:49:41.494Z,99925.18
2018-07-02T15:52:09.438Z,99929.58
2018-07-02T15:54:37.195Z,99933.66
2018-07-02T15:57:05.039Z,99928.87
2018-07-02T15:59:32.913Z,99921.28
2018-07-02T16:02:00.704Z,99920.69
2018-07-02T16:04:28.627Z,99933.30
2018-07-02T16:06:56.450Z,99934.66
2018-07-02T16:09:24.356Z,99934.92
2018-07-02T16:11:52.120Z,99944.09
2018-07-02T16:14:19.747Z,99931.80
2018-07-02T16:16:47.526Z,99917.50
2018-07-02T16:19:15.375Z,99919.45
2018-07-02T16:21:43.221Z,99914.75
2018-07-02T16:24:11.173Z,99915.80
2018-07-02T16:26:38.921Z,99914.81
2018-07-02T16:29:06.641Z,99908.34
2018-07-02T16:31:34.347Z,99910.31
2018-07-02T16:34:02.133Z,99909.72
2018-07-02T16:36:29.980Z,99916.09
2018-07-02T16:38:57.707Z,99913.72
2018-07-02T16:41:25.364Z,99907.59
2018-07-02T16:43:53.086Z,99895.02
2018-07-02T16:46:20.803Z,99904.80
2018-07-02T16:48:48.658Z,99907.66
2018-07-02T16:51:16.420Z,99913.62
2018-07-02T16:53:44.334Z,99915.59
2018-07-02T16:56:12.224Z,99918.12
2018-07-02T16:58:39.998Z,99924.37
2018-07-02T17:01:07.878Z,99913.45
2018-07-02T17:03:35.610Z,99921.61
2018-07-02T17:06:03.611Z,99908.23
2018-07-02T17:08:31.454Z,99914.52
2018-07-02T17:10:59.226Z,99911.20
2018-07-02T17:13:27.271Z,99899.48
2018-07-02T17:15:55.060Z,99894.52
2018-07-02T17:18:23.404Z,99899.80
2018-07-02T17:20:51.244Z,99897.55
2018-07-02T17:23:18.921Z,99897.07
2018-07-02T17:25:46.700Z,99903.28
2018-07-02T17:28:14.470Z,99903.74
2018-07-02T17:30:42.166Z,99911.59
2018-07-02T17:33:09.971Z,99893.51
2018-07-02T17:35:37.838Z,99911.40
2018-07-02T17:38:05.525Z,99913.35
2018-07-02T17:40:33.223Z,99917.43
2018-07-02T17:43:00.907Z,99909.11
2018-07-02T17:45:28.581Z,99899.39
2018-07-02T17:47:56.341Z,99913.78
2018-07-02T17:50:24.334Z,99914.14
2018-07-02T17:52:52.025Z,99920.72
2018-07-02T17:55:19.907Z,99909.14
2018-07-02T17:57:47.735Z,99852.50
2018-07-02T18:00:15.459Z,99905.00
2018-07-02T18:02:43.309Z,99910.80
2018-07-02T18:05:11.091Z,99912.63
2018-07-02T18:07:38.876Z,99913.95
2018-07-02T18:10:07.075Z,99911.84
2018-07-02T18:12:34.982Z,99914.75
2018-07-02T18:15:02.875Z,99904.72
2018-07-02T18:17:30.984Z,99909.00
2018-07-02T18:19:58.647Z,99907.15
2018-07-02T18:22:26.424Z,99905.64
2018-07-02T18:24:54.248Z,99910.17
2018-07-02T18:27:22.055Z,99911.86
2018-07-02T18:29:49.992Z,99914.58
2018-07-02T18:32:17.823Z,99905.75
2018-07-02T18:34:45.607Z,99906.48
2018-07-02T18:37:13.454Z,99899.05
2018-07-02T18:39:41.296Z,99899.55
2018-07-02T18:42:09.157Z,99894.17
2018-07-02T18:44:37.096Z,99891.69
2018-07-02T18:47:05.029Z,99891.70
2018-07-02T18:49:32.781Z,99897.48
2018-07-02T18:52:00.558Z,99900.37
2018-07-02T18:54:28.244Z,99897.34
2018-07-02T18:56:56.049Z,99897.89
2018-07-02T18:59:23.819Z,99899.19
2018-07-02T19:01:51.559Z,99900.06
2018-07-02T19:04:19.344Z,99898.12
2018-07-02T19:06:47.083Z,99900.10
2018-07-02T19:09:14.780Z,99897.72
2018-07-02T19:11:43.140Z,99898.33
2018-07-02T19:14:11.103Z,99896.81
2018-07-02T19:16:39.459Z,99895.74
2018-07-02T19:19:07.441Z,99904.32
2018-07-02T19:21:35.616Z,99904.77
2018-07-02T19:24:03.684Z,99905.76
2018-07-02T19:26:31.387Z,99908.75
2018-07-02T19:28:59.142Z,99912.66
2018-07-02T19:31:26.847Z,99909.75
2018-07-02T19:33:54.623Z,99916.64
2018-07-02T19:36:22.609Z,99917.45
2018-07-02T19:38:50.445Z,99917.72
2018-07-02T19:41:18.222Z,99918.55
2018-07-02T19:43:46.032Z,99920.84
2018-07-02T19:46:13.784Z,99924.08
2018-07-02T19:48:41.458Z,99928.39
2018-07-02T19:51:09.192Z,99925.83
2018-07-02T19:53:36.999Z,99926.52
2018-07-02T19:56:04.725Z,99931.73
2018-07-02T19:58:32.489Z,99928.34
2018-07-02T20:01:00.298Z,99926.11
2018-07-02T20:03:28.014Z,99922.70
2018-07-02T20:05:55.719Z,99923.91
2018-07-02T20:08:23.385Z,99926.34
2018-07-02T20:10:51.198Z,99919.75
2018-07-02T20:13:18.961Z,99923.11
2018-07-02T20:15:46.623Z,99919.36
2018-07-02T20:18:14.529Z,99927.22
2018-07-02T20:20:44.297Z,99929.91
2018-07-02T20:23:12.121Z,99931.59
2018-07-02T20:25:39.982Z,99933.13
2018-07-02T20:28:07.728Z,99940.25
2018-07-02T20:30:35.942Z,99946.89
2018-07-02T20:33:03.663Z,99954.86
2018-07-02T20:35:31.377Z,99948.71
2018-07-02T20:37:59.348Z,99945.38
2018-07-02T20:40:27.065Z,99946.22
2018-07-02T20:42:54.697Z,99960.79
2018-07-02T20:45:22.478Z,99961.41
2018-07-02T20:47:50.211Z,99961.48
2018-07-02T20:50:17.986Z,99958.30
2018-07-02T20:52:45.677Z,99953.94
2018-07-02T20:55:13.382Z,99960.07
2018-07-02T20:57:41.120Z,99965.52
2018-07-02T21:00:08.767Z,99971.31
2018-07-02T21:02:36.482Z,99971.45
2018-07-02T21:05:04.306Z,99973.05
2018-07-02T21:07:32.136Z,99975.16
2018-07-02T21:09:59.884Z,99972.11
2018-07-02T21:12:27.796Z,99964.78
2018-07-02T21:14:55.528Z,99969.58
2018-07-02T21:17:23.278Z,99965.53
2018-07-02T21:19:50.996Z,99970.59
2018-07-02T21:22:18.671Z,99961.50
2018-07-02T21:24:46.268Z,99969.59
2018-07-02T21:27:14.001Z,99966.95
2018-07-02T21:29:41.666Z,99967.41
2018-07-02T21:32:09.386Z,99971.61
2018-07-02T21:34:37.106Z,99972.89
2018-07-02T21:37:05.178Z,99976.31
2018-07-02T21:39:32.901Z,99972.19
2018-07-02T21:42:00.604Z,99968.99
2018-07-02T21:44:28.297Z,99967.50
2018-07-02T21:46:55.985Z,99960.42
2018-07-02T21:49:23.641Z,99960.42
2018-07-02T21:51:51.392Z,99961.94
2018-07-02T21:54:19.113Z,99963.48
2018-07-02T21:56:46.751Z,99961.21
2018-07-02T21:59:14.397Z,99962.00
2018-07-02T22:01:42.024Z,99972.44
2018-07-02T22:04:09.796Z,99975.72
2018-07-02T22:06:37.412Z,99981.27
2018-07-02T22:09:07.624Z,99985.45
2018-07-02T22:11:35.341Z,99978.83
2018-07-02T22:14:03.414Z,99987.76
2018-07-02T22:16:31.035Z,99981.99
2018-07-02T22:18:58.800Z,99982.72
2018-07-02T22:21:26.506Z,99981.75
2018-07-02T22:23:54.186Z,99974.61
2018-07-02T22:26:21.858Z,99978.23
2018-07-02T22:28:49.562Z,99970.16
2018-07-02T22:31:17.154Z,99974.05
2018-07-02T22:33:44.850Z,99971.19
2018-07-02T22:36:12.484Z,99969.80
2018-07-02T22:38:40.105Z,99967.20
2018-07-02T22:41:07.826Z,99971.17
2018-07-02T22:43:35.449Z,99974.55
2018-07-02T22:46:03.149Z,99979.80
2018-07-02T22:48:31.509Z,99979.83
2018-07-02T22:50:59.137Z,99980.42
2018-07-02T22:53:26.797Z,99980.33
2018-07-02T22:56:02.989Z,99982.48
2018-07-02T22:58:30.642Z,99979.91
2018-07-02T23:00:59.092Z,99978.94
2018-07-02T23:03:26.934Z,99981.23
2018-07-02T23:05:55.011Z,99985.72
2018-07-02T23:08:23.034Z,99986.52
2018-07-02T23:10:50.637Z,99985.05
2018-07-02T23:13:18.220Z,99987.30
2018-07-02T23:15:46.067Z,99988.42
2018-07-02T23:18:13.670Z,99983.81
2018-07-02T23:20:41.292Z,99979.86
2018-07-02T23:23:08.990Z,99979.77
2018-07-02T23:25:36.721Z,99968.28
2018-07-02T23:28:04.443Z,99964.31
2018-07-02T23:30:32.760Z,99967.83
2018-07-02T23:33:00.629Z,99968.56
2018-07-02T23:35:28.315Z,99966.95
2018-07-02T23:37:55.928Z,99966.79
2018-07-02T23:40:24.889Z,99961.77
2018-07-02T23:42:53.549Z,99967.89
2018-07-02T23:45:22.010Z,99961.29
2018-07-02T23:47:49.700Z,99972.12
2018-07-02T23:50:17.787Z,99975.85
2018-07-02T23:52:45.465Z,99980.91
2018-07-02T23:55:13.093Z,99980.91
2018-07-02T23:57:40.753Z,99982.77
